createdAt,value
2023-03-28T00:03:29.966Z,213308.00
2023-03-28T00:09:33.273Z,213286.00
2023-03-28T00:15:38.277Z,213226.00
2023-03-28T00:21:47.464Z,213198.00
2023-03-28T00:27:49.912Z,213158.00
2023-03-28T00:33:53.208Z,213125.00
2023-03-28T00:39:55.651Z,213103.00
2023-03-28T00:46:08.666Z,213053.00
2023-03-28T00:52:16.043Z,212925.00
2023-03-28T00:58:25.345Z,212836.00
2023-03-28T01:04:37.287Z,212735.00
2023-03-28T01:10:41.762Z,212680.00
2023-03-28T01:16:48.178Z,212596.00
2023-03-28T01:23:18.673Z,212569.00
2023-03-28T01:29:39.487Z,212507.00
2023-03-28T01:36:08.820Z,212441.00
2023-03-28T01:42:44.522Z,212379.00
2023-03-28T01:48:55.088Z,212337.00
2023-03-28T01:55:12.982Z,212276.00
2023-03-28T02:01:23.417Z,212242.00
2023-03-28T02:07:29.219Z,212215.00
2023-03-28T02:13:46.890Z,212242.00
2023-03-28T02:20:12.228Z,212284.00
2023-03-28T02:26:41.453Z,212337.00
2023-03-28T02:32:59.746Z,212421.00
2023-03-28T02:39:02.243Z,212499.00
2023-03-28T02:45:07.443Z,212535.00
2023-03-28T02:51:14.186Z,212588.00
2023-03-28T02:57:33.263Z,212569.00
2023-03-28T03:03:38.256Z,212529.00
2023-03-28T03:09:41.019Z,212493.00
2023-03-28T03:15:43.215Z,212455.00
2023-03-28T03:21:55.803Z,212399.00
2023-03-28T03:27:58.246Z,212421.00
2023-03-28T03:40:08.614Z,212316.00
2023-03-28T03:46:14.407Z,212248.00
2023-03-28T03:52:16.840Z,212256.00
2023-03-28T03:58:20.447Z,212242.00
2023-03-28T04:04:25.268Z,212182.00
2023-03-28T04:10:56.638Z,212242.00
2023-03-28T04:16:59.348Z,212242.00
2023-03-28T04:23:06.244Z,212215.00
2023-03-28T04:29:11.045Z,212234.00
2023-03-28T04:35:16.897Z,212234.00
2023-03-28T04:41:26.704Z,212284.00
2023-03-28T04:47:41.466Z,212242.00
2023-03-28T04:53:51.271Z,212284.00
2023-03-28T05:00:29.276Z,212310.00
2023-03-28T05:06:37.829Z,212337.00
2023-03-28T05:12:40.877Z,212421.00
2023-03-28T05:18:43.846Z,212468.00
2023-03-28T05:24:47.024Z,212499.00
2023-03-28T05:30:55.525Z,212507.00
2023-03-28T05:36:58.253Z,212521.00
2023-03-28T05:43:04.093Z,212507.00
2023-03-28T05:49:08.117Z,212507.00
2023-03-28T05:55:10.935Z,212541.00
2023-03-28T06:01:19.182Z,212499.00
2023-03-28T06:07:39.424Z,212588.00
2023-03-28T06:13:46.460Z,212569.00
2023-03-28T06:19:50.083Z,212596.00
2023-03-28T06:25:53.336Z,212604.00
2023-03-28T06:31:57.319Z,212616.00
2023-03-28T06:38:00.208Z,212632.00
2023-03-28T06:44:02.724Z,212590.00
2023-03-28T06:50:31.314Z,212549.00
2023-03-28T06:56:37.489Z,212507.00
2023-03-28T07:02:40.768Z,212407.00
2023-03-28T07:08:45.660Z,212421.00
2023-03-28T07:14:49.744Z,212399.00
2023-03-28T07:21:03.132Z,212447.00
2023-03-28T07:27:15.477Z,212549.00
2023-03-28T07:33:33.290Z,212666.00
2023-03-28T07:39:40.680Z,212741.00
2023-03-28T07:45:48.125Z,212720.00
2023-03-28T07:51:50.590Z,212733.00
2023-03-28T07:57:53.575Z,212766.00
2023-03-28T08:04:05.743Z,212700.00
2023-03-28T08:10:22.311Z,212680.00
2023-03-28T08:16:26.343Z,212720.00
2023-03-28T08:22:28.980Z,212666.00
2023-03-28T08:28:55.146Z,212680.00
2023-03-28T08:34:59.015Z,212788.00
2023-03-28T08:41:38.545Z,212869.00
2023-03-28T08:47:50.058Z,212903.00
2023-03-28T08:54:17.196Z,212856.00
2023-03-28T09:00:24.632Z,212911.00
2023-03-28T09:06:33.563Z,212967.00
2023-03-28T09:13:04.801Z,212856.00
2023-03-28T09:19:37.006Z,212836.00
2023-03-28T09:26:08.963Z,212788.00
2023-03-28T09:32:31.033Z,212788.00
2023-03-28T09:38:38.356Z,212883.00
2023-03-28T09:44:54.355Z,213025.00
2023-03-28T09:51:23.931Z,213150.00
2023-03-28T09:57:27.835Z,213206.00
2023-03-28T10:03:35.505Z,213200.00
2023-03-28T10:09:54.877Z,213158.00
2023-03-28T10:16:00.233Z,213158.00
2023-03-28T10:22:38.084Z,213278.00
2023-03-28T10:28:44.122Z,213501.00
2023-03-28T10:35:01.227Z,213816.00
2023-03-28T10:41:32.896Z,213816.00
2023-03-28T10:47:57.598Z,213928.00
2023-03-28T10:54:06.340Z,214003.00
2023-03-28T11:00:35.707Z,214011.00
2023-03-28T11:06:50.070Z,214072.00
2023-03-28T11:13:16.814Z,214078.00
2023-03-28T11:19:42.124Z,214119.00
2023-03-28T11:26:04.759Z,214133.00
2023-03-28T11:32:52.119Z,214033.00
2023-03-28T11:39:03.042Z,214099.00
2023-03-28T11:45:30.650Z,214011.00
2023-03-28T11:51:53.564Z,213936.00
2023-03-28T11:58:05.685Z,213892.00
2023-03-28T12:04:32.322Z,214011.00
2023-03-28T12:10:37.340Z,214155.00
2023-03-28T12:17:21.436Z,214296.00
2023-03-28T12:23:38.142Z,214341.00
2023-03-28T12:30:25.055Z,214329.00
2023-03-28T12:36:49.645Z,214155.00
2023-03-28T12:42:56.795Z,214260.00
2023-03-28T12:49:13.112Z,214260.00
2023-03-28T12:55:25.123Z,214466.00
2023-03-28T13:01:59.962Z,214446.00
2023-03-28T13:08:48.940Z,214537.00
2023-03-28T13:15:13.837Z,214341.00
2023-03-28T13:22:01.264Z,214252.00
2023-03-28T13:28:13.098Z,214252.00
2023-03-28T13:34:24.089Z,214225.00
2023-03-28T13:40:48.693Z,214191.00
2023-03-28T13:46:55.041Z,214003.00
2023-03-28T13:52:57.895Z,213983.00
2023-03-28T13:59:03.862Z,213950.00
2023-03-28T14:05:20.383Z,214033.00
2023-03-28T14:11:30.691Z,214078.00
2023-03-28T14:17:36.768Z,214052.00
2023-03-28T14:23:41.902Z,214011.00
2023-03-28T14:29:59.183Z,213936.00
2023-03-28T14:36:04.285Z,213872.00
2023-03-28T14:42:15.765Z,213844.00
2023-03-28T14:48:23.853Z,213714.00
2023-03-28T14:54:41.920Z,213617.00
2023-03-28T15:00:47.236Z,213575.00
2023-03-28T15:06:57.027Z,213547.00
2023-03-28T15:13:05.208Z,213547.00
2023-03-28T15:19:18.846Z,213542.00
2023-03-28T15:25:22.376Z,213473.00
2023-03-28T15:31:25.947Z,213439.00
2023-03-28T15:37:28.723Z,213184.00
2023-03-28T15:43:41.922Z,212741.00
2023-03-28T15:49:44.928Z,212182.00
2023-03-28T15:55:49.958Z,215937.00
2023-03-28T16:02:18.168Z,215734.00
2023-03-28T16:08:34.478Z,215660.00
2023-03-28T16:14:37.053Z,215624.00
2023-03-28T16:21:11.881Z,215660.00
2023-03-28T16:27:14.123Z,215660.00
2023-03-28T16:33:17.509Z,215672.00
2023-03-28T16:39:19.964Z,215680.00
2023-03-28T16:45:24.141Z,215714.00
2023-03-28T16:51:26.977Z,215646.00
2023-03-28T16:57:29.548Z,215666.00
2023-03-28T17:03:32.724Z,215720.00
2023-03-28T17:09:35.236Z,215755.00
2023-03-28T17:15:37.685Z,215761.00
2023-03-28T17:21:40.073Z,215755.00
2023-03-28T17:27:42.241Z,215728.00
2023-03-28T17:33:45.626Z,215646.00
2023-03-28T17:39:48.057Z,215612.00
2023-03-28T17:45:54.764Z,215654.00
2023-03-28T17:51:57.745Z,215646.00
2023-03-28T17:58:00.117Z,215618.00
2023-03-28T18:04:02.676Z,215646.00
2023-03-28T18:10:09.295Z,215624.00
2023-03-28T18:16:14.593Z,215660.00
2023-03-28T18:22:17.210Z,215722.00
2023-03-28T18:28:26.801Z,215742.00
2023-03-28T18:34:29.373Z,215775.00
2023-03-28T18:40:32.127Z,215797.00
2023-03-28T18:46:34.731Z,215797.00
2023-03-28T18:52:37.928Z,215797.00
2023-03-28T18:58:40.438Z,215775.00
2023-03-28T19:04:42.971Z,215775.00
2023-03-28T19:10:46.228Z,215755.00
2023-03-28T19:16:48.869Z,215722.00
2023-03-28T19:22:51.312Z,215660.00
2023-03-28T19:28:54.034Z,215624.00
2023-03-28T19:34:56.868Z,215546.00
2023-03-28T19:41:00.856Z,215518.00
2023-03-28T19:47:03.738Z,215465.00
2023-03-28T19:53:06.055Z,215389.00
2023-03-28T19:59:08.637Z,215336.00
2023-03-28T20:05:11.056Z,215275.00
2023-03-28T20:11:14.649Z,215255.00
2023-03-28T20:17:17.480Z,215208.00
2023-03-28T20:23:22.943Z,215140.00
2023-03-28T20:29:25.324Z,215098.00
2023-03-28T20:35:28.275Z,215078.00
2023-03-28T20:41:30.601Z,215018.00
2023-03-28T20:47:32.909Z,214978.00
2023-03-28T20:53:35.286Z,214925.00
2023-03-28T20:59:40.868Z,214919.00
2023-03-28T21:05:45.271Z,214903.00
2023-03-28T21:11:47.641Z,214883.00
2023-03-28T21:17:53.837Z,214837.00
2023-03-28T21:23:57.391Z,214829.00
2023-03-28T21:30:04.256Z,214784.00
2023-03-28T21:36:08.441Z,214763.00
2023-03-28T21:42:10.648Z,214715.00
2023-03-28T21:48:13.217Z,214664.00
2023-03-28T21:54:15.958Z,214608.00
2023-03-28T22:00:21.001Z,214560.00
2023-03-28T22:06:23.186Z,214508.00
2023-03-28T22:12:26.241Z,214468.00
2023-03-28T22:18:30.887Z,214428.00
2023-03-28T22:24:33.520Z,214387.00
2023-03-28T22:30:37.705Z,214409.00
2023-03-28T22:36:40.098Z,214375.00
2023-03-28T22:42:42.547Z,214395.00
2023-03-28T22:48:45.155Z,214403.00
2023-03-28T22:54:47.443Z,214415.00
2023-03-28T23:00:50.430Z,214409.00
2023-03-28T23:06:54.095Z,214387.00
2023-03-28T23:12:57.041Z,214409.00
2023-03-28T23:19:00.413Z,214409.00
2023-03-28T23:25:03.317Z,214387.00
2023-03-28T23:31:07.049Z,214353.00
2023-03-28T23:37:10.416Z,214287.00
2023-03-28T23:43:12.981Z,214247.00
2023-03-28T23:49:15.314Z,214235.00
2023-03-28T23:55:17.897Z,214213.00
